hwlogo.jpg (8581 bytes)
Home Your Weather Products Services Weather On Your Site Contact
HW Version Logo
Weather Info
Your Weather (Options)
Canadian Weather
International Weather
Enter your " Place, State", US Zip Code or ICAO:  
Forecast Information Radar Information
Inuvik, Northwest Territories, Canada  Lat: 68.28N, Lon: 133.48W
ICAO Used: CYEV
Current Conditions
Updated: 11:00 AM MST THU FEB 22 2018
Sun & Moon Information
Overcast
Overcast
Temp: -9°C
Humidity: 72%
Wind Speed: E 5 MPH
Barometer: 1004 mb
Dewpoint: -13°C
Heat Index: -9°C
Wind Chill: -14°C
Civil Twilight: 8:50 AM MST Moon Phase:
Waxing Gibbous Moon
Sunrise: 9:50 AM MST
Sunset: 6:25 PM MST
Civil Twilight: 7:25 PM MST
Forecast for Inuvik, NT:
(Forecast based on TAF for )
1242 PM MST THU FEB 22 2018
  
AFTERNOON EVENING OVERNIGHT
Partly
Cloudy
Partly
Cloudy
Partly
Cloudy
ZoneCast:
Dated: 1242 PM MST THU FEB 22 2018
Afternoon...Partly cloudy with winds from the east at 6 mph.

Evening...Partly cloudy with winds from the east at 6 mph.

Overnight...Partly cloudy with winds from the east at 6 mph.

Original Encoded TAF:
Dated: 1242 PM MST THU FEB 22 2018
2018/02/22 19:42
TAF CYEV 221838Z 2219/2307 08005KT P6SM FEW160 SCT220 
      RMK NXT FCST BY 230100Z